sensor_id;sensor_type;location;lat;lon;timestamp;temperature;humidity
26721;HTU21D;15950;51.112;6.966;2023-07-30T00:01:01;18.14;88.47
26721;HTU21D;15950;51.112;6.966;2023-07-30T00:04:01;18.08;88.71
26721;HTU21D;15950;51.112;6.966;2023-07-30T00:07:01;18.16;88.22
26721;HTU21D;15950;51.112;6.966;2023-07-30T00:10:01;18.02;88.30
26721;HTU21D;15950;51.112;6.966;2023-07-30T00:13:01;18.02;88.58
26721;HTU21D;15950;51.112;6.966;2023-07-30T00:16:01;17.85;88.99
26721;HTU21D;15950;51.112;6.966;2023-07-30T00:19:01;17.89;88.80
26721;HTU21D;15950;51.112;6.966;2023-07-30T00:22:01;17.80;88.99
26721;HTU21D;15950;51.112;6.966;2023-07-30T00:25:01;17.68;89.34
26721;HTU21D;15950;51.112;6.966;2023-07-30T00:28:01;17.60;89.58
26721;HTU21D;15950;51.112;6.966;2023-07-30T00:31:01;17.59;89.44
26721;HTU21D;15950;51.112;6.966;2023-07-30T00:34:01;17.59;89.13
26721;HTU21D;15950;51.112;6.966;2023-07-30T00:37:01;17.73;88.57
26721;HTU21D;15950;51.112;6.966;2023-07-30T00:40:02;17.59;88.63
26721;HTU21D;15950;51.112;6.966;2023-07-30T00:43:01;17.50;89.25
26721;HTU21D;15950;51.112;6.966;2023-07-30T00:46:01;17.49;89.18
26721;HTU21D;15950;51.112;6.966;2023-07-30T00:49:01;17.47;89.22
26721;HTU21D;15950;51.112;6.966;2023-07-30T00:52:01;17.40;89.63
26721;HTU21D;15950;51.112;6.966;2023-07-30T00:55:04;17.40;89.76
26721;HTU21D;15950;51.112;6.966;2023-07-30T00:58:01;17.39;90.11
26721;HTU21D;15950;51.112;6.966;2023-07-30T01:01:01;17.43;89.56
26721;HTU21D;15950;51.112;6.966;2023-07-30T01:04:01;17.51;89.38
26721;HTU21D;15950;51.112;6.966;2023-07-30T01:07:01;17.49;89.35
26721;HTU21D;15950;51.112;6.966;2023-07-30T01:10:01;17.39;89.66
26721;HTU21D;15950;51.112;6.966;2023-07-30T01:13:02;17.38;89.86
26721;HTU21D;15950;51.112;6.966;2023-07-30T01:16:01;17.27;90.31
26721;HTU21D;15950;51.112;6.966;2023-07-30T01:19:01;17.34;89.98
26721;HTU21D;15950;51.112;6.966;2023-07-30T01:22:01;17.54;89.52
26721;HTU21D;15950;51.112;6.966;2023-07-30T01:25:01;17.65;88.76
26721;HTU21D;15950;51.112;6.966;2023-07-30T01:28:02;17.50;89.03
26721;HTU21D;15950;51.112;6.966;2023-07-30T01:31:01;17.45;88.91
26721;HTU21D;15950;51.112;6.966;2023-07-30T01:34:02;17.40;89.12
26721;HTU21D;15950;51.112;6.966;2023-07-30T01:37:01;17.32;89.74
26721;HTU21D;15950;51.112;6.966;2023-07-30T01:40:01;17.22;90.20
26721;HTU21D;15950;51.112;6.966;2023-07-30T01:43:01;17.25;90.26
26721;HTU21D;15950;51.112;6.966;2023-07-30T01:46:01;17.17;90.04
26721;HTU21D;15950;51.112;6.966;2023-07-30T01:49:01;17.22;89.93
26721;HTU21D;15950;51.112;6.966;2023-07-30T01:52:01;17.27;89.66
26721;HTU21D;15950;51.112;6.966;2023-07-30T01:55:01;17.40;88.79
26721;HTU21D;15950;51.112;6.966;2023-07-30T01:58:01;17.54;88.44
26721;HTU21D;15950;51.112;6.966;2023-07-30T02:01:01;17.75;87.76
26721;HTU21D;15950;51.112;6.966;2023-07-30T02:04:01;17.62;87.64
26721;HTU21D;15950;51.112;6.966;2023-07-30T02:07:01;17.59;87.90
26721;HTU21D;15950;51.112;6.966;2023-07-30T02:10:01;17.45;88.76
26721;HTU21D;15950;51.112;6.966;2023-07-30T02:13:01;17.47;89.05
26721;HTU21D;15950;51.112;6.966;2023-07-30T02:16:01;17.54;89.09
26721;HTU21D;15950;51.112;6.966;2023-07-30T02:19:01;17.44;88.94
26721;HTU21D;15950;51.112;6.966;2023-07-30T02:22:01;17.45;89.01
26721;HTU21D;15950;51.112;6.966;2023-07-30T02:25:01;17.43;89.60
26721;HTU21D;15950;51.112;6.966;2023-07-30T02:28:01;17.44;89.73
26721;HTU21D;15950;51.112;6.966;2023-07-30T02:31:01;17.65;89.23
26721;HTU21D;15950;51.112;6.966;2023-07-30T02:34:01;17.73;88.94
26721;HTU21D;15950;51.112;6.966;2023-07-30T02:37:01;17.78;88.77
26721;HTU21D;15950;51.112;6.966;2023-07-30T02:40:01;17.97;87.90
26721;HTU21D;15950;51.112;6.966;2023-07-30T02:43:01;17.93;88.05
26721;HTU21D;15950;51.112;6.966;2023-07-30T02:46:01;17.79;88.41
26721;HTU21D;15950;51.112;6.966;2023-07-30T02:49:01;17.74;88.88
26721;HTU21D;15950;51.112;6.966;2023-07-30T02:52:01;17.51;89.83
26721;HTU21D;15950;51.112;6.966;2023-07-30T02:55:01;17.46;89.83
26721;HTU21D;15950;51.112;6.966;2023-07-30T02:58:01;17.53;89.75
26721;HTU21D;15950;51.112;6.966;2023-07-30T03:01:06;17.50;89.49
26721;HTU21D;15950;51.112;6.966;2023-07-30T03:04:01;17.58;89.55
26721;HTU21D;15950;51.112;6.966;2023-07-30T03:07:01;17.47;89.65
26721;HTU21D;15950;51.112;6.966;2023-07-30T03:10:01;17.43;89.76
26721;HTU21D;15950;51.112;6.966;2023-07-30T03:13:01;17.42;89.28
26721;HTU21D;15950;51.112;6.966;2023-07-30T03:16:01;17.54;89.54
26721;HTU21D;15950;51.112;6.966;2023-07-30T03:19:01;17.51;89.40
26721;HTU21D;15950;51.112;6.966;2023-07-30T03:22:01;17.62;89.09
26721;HTU21D;15950;51.112;6.966;2023-07-30T03:25:01;17.57;88.80
26721;HTU21D;15950;51.112;6.966;2023-07-30T03:28:01;17.57;87.22
26721;HTU21D;15950;51.112;6.966;2023-07-30T03:31:01;17.29;86.00
26721;HTU21D;15950;51.112;6.966;2023-07-30T03:34:01;17.29;85.16
26721;HTU21D;15950;51.112;6.966;2023-07-30T03:37:01;17.27;83.81
26721;HTU21D;15950;51.112;6.966;2023-07-30T03:40:01;17.21;84.19
26721;HTU21D;15950;51.112;6.966;2023-07-30T03:43:01;17.09;84.00
26721;HTU21D;15950;51.112;6.966;2023-07-30T03:46:01;17.06;83.42
26721;HTU21D;15950;51.112;6.966;2023-07-30T03:49:01;17.06;82.56
26721;HTU21D;15950;51.112;6.966;2023-07-30T03:52:01;17.06;82.87
26721;HTU21D;15950;51.112;6.966;2023-07-30T03:55:01;17.23;82.52
26721;HTU21D;15950;51.112;6.966;2023-07-30T03:58:01;17.25;82.59
26721;HTU21D;15950;51.112;6.966;2023-07-30T04:01:01;17.11;81.46
26721;HTU21D;15950;51.112;6.966;2023-07-30T04:04:01;17.10;81.49
26721;HTU21D;15950;51.112;6.966;2023-07-30T04:07:01;17.11;81.14
26721;HTU21D;15950;51.112;6.966;2023-07-30T04:10:01;17.09;81.59
26721;HTU21D;15950;51.112;6.966;2023-07-30T04:13:01;17.18;81.56
26721;HTU21D;15950;51.112;6.966;2023-07-30T04:16:01;17.03;82.23
26721;HTU21D;15950;51.112;6.966;2023-07-30T04:19:00;16.93;82.62
26721;HTU21D;15950;51.112;6.966;2023-07-30T04:22:00;16.81;82.54
26721;HTU21D;15950;51.112;6.966;2023-07-30T04:25:01;16.81;80.90
26721;HTU21D;15950;51.112;6.966;2023-07-30T04:28:00;16.81;80.56
26721;HTU21D;15950;51.112;6.966;2023-07-30T04:31:00;16.78;80.27
26721;HTU21D;15950;51.112;6.966;2023-07-30T04:34:00;16.69;78.98
26721;HTU21D;15950;51.112;6.966;2023-07-30T04:37:00;16.67;79.72
26721;HTU21D;15950;51.112;6.966;2023-07-30T04:40:00;16.61;78.30
26721;HTU21D;15950;51.112;6.966;2023-07-30T04:43:00;16.55;77.98
26721;HTU21D;15950;51.112;6.966;2023-07-30T04:46:00;16.66;78.16
26721;HTU21D;15950;51.112;6.966;2023-07-30T04:49:03;16.67;77.55
26721;HTU21D;15950;51.112;6.966;2023-07-30T04:52:00;16.76;77.15
26721;HTU21D;15950;51.112;6.966;2023-07-30T04:55:01;16.69;77.01
26721;HTU21D;15950;51.112;6.966;2023-07-30T04:58:00;16.65;77.14
26721;HTU21D;15950;51.112;6.966;2023-07-30T05:01:00;16.52;76.47
26721;HTU21D;15950;51.112;6.966;2023-07-30T05:04:00;16.57;78.03
26721;HTU21D;15950;51.112;6.966;2023-07-30T05:07:00;16.46;77.27
26721;HTU21D;15950;51.112;6.966;2023-07-30T05:10:00;16.58;76.39
26721;HTU21D;15950;51.112;6.966;2023-07-30T05:13:00;16.57;76.60
26721;HTU21D;15950;51.112;6.966;2023-07-30T05:16:00;16.58;76.73
26721;HTU21D;15950;51.112;6.966;2023-07-30T05:19:00;16.65;76.11
26721;HTU21D;15950;51.112;6.966;2023-07-30T05:22:00;16.63;77.21
26721;HTU21D;15950;51.112;6.966;2023-07-30T05:25:00;16.78;76.48
26721;HTU21D;15950;51.112;6.966;2023-07-30T05:28:01;16.74;76.98
26721;HTU21D;15950;51.112;6.966;2023-07-30T05:31:00;16.75;77.18
26721;HTU21D;15950;51.112;6.966;2023-07-30T05:34:00;16.75;76.51
26721;HTU21D;15950;51.112;6.966;2023-07-30T05:37:01;16.73;76.98
26721;HTU21D;15950;51.112;6.966;2023-07-30T05:40:01;16.70;77.35
26721;HTU21D;15950;51.112;6.966;2023-07-30T05:43:00;16.69;77.79
26721;HTU21D;15950;51.112;6.966;2023-07-30T05:46:00;16.54;77.92
26721;HTU21D;15950;51.112;6.966;2023-07-30T05:49:00;16.67;77.95
26721;HTU21D;15950;51.112;6.966;2023-07-30T05:52:00;16.56;78.04
26721;HTU21D;15950;51.112;6.966;2023-07-30T05:55:01;16.58;78.59
26721;HTU21D;15950;51.112;6.966;2023-07-30T05:58:00;16.63;77.92
26721;HTU21D;15950;51.112;6.966;2023-07-30T06:01:00;16.67;78.47
26721;HTU21D;15950;51.112;6.966;2023-07-30T06:04:00;16.74;78.67
26721;HTU21D;15950;51.112;6.966;2023-07-30T06:07:02;16.82;78.18
26721;HTU21D;15950;51.112;6.966;2023-07-30T06:10:00;16.90;78.29
26721;HTU21D;15950;51.112;6.966;2023-07-30T06:13:01;16.88;78.75
26721;HTU21D;15950;51.112;6.966;2023-07-30T06:16:00;16.80;78.30
26721;HTU21D;15950;51.112;6.966;2023-07-30T06:19:00;16.62;80.04
26721;HTU21D;15950;51.112;6.966;2023-07-30T06:22:00;16.46;81.97
26721;HTU21D;15950;51.112;6.966;2023-07-30T06:25:00;16.57;81.39
26721;HTU21D;15950;51.112;6.966;2023-07-30T06:28:00;16.59;82.04
26721;HTU21D;15950;51.112;6.966;2023-07-30T06:31:03;16.58;82.20
26721;HTU21D;15950;51.112;6.966;2023-07-30T06:34:00;16.57;82.18
26721;HTU21D;15950;51.112;6.966;2023-07-30T06:37:00;16.64;82.00
26721;HTU21D;15950;51.112;6.966;2023-07-30T06:40:00;16.71;81.67
26721;HTU21D;15950;51.112;6.966;2023-07-30T06:43:00;16.72;81.25
26721;HTU21D;15950;51.112;6.966;2023-07-30T06:46:00;16.74;80.94
26721;HTU21D;15950;51.112;6.966;2023-07-30T06:49:00;16.76;80.52
26721;HTU21D;15950;51.112;6.966;2023-07-30T06:52:01;16.68;80.24
26721;HTU21D;15950;51.112;6.966;2023-07-30T06:55:01;16.66;80.20
26721;HTU21D;15950;51.112;6.966;2023-07-30T06:58:00;16.50;80.45
26721;HTU21D;15950;51.112;6.966;2023-07-30T07:01:00;16.58;79.82
26721;HTU21D;15950;51.112;6.966;2023-07-30T07:04:00;16.48;80.13
26721;HTU21D;15950;51.112;6.966;2023-07-30T07:07:00;16.61;80.44
26721;HTU21D;15950;51.112;6.966;2023-07-30T07:10:00;16.62;80.36
26721;HTU21D;15950;51.112;6.966;2023-07-30T07:13:00;16.58;80.11
26721;HTU21D;15950;51.112;6.966;2023-07-30T07:16:00;16.53;80.33
26721;HTU21D;15950;51.112;6.966;2023-07-30T07:19:00;16.46;80.16
26721;HTU21D;15950;51.112;6.966;2023-07-30T07:22:00;16.64;80.40
26721;HTU21D;15950;51.112;6.966;2023-07-30T07:25:00;16.58;80.62
26721;HTU21D;15950;51.112;6.966;2023-07-30T07:28:00;16.74;80.89
26721;HTU21D;15950;51.112;6.966;2023-07-30T07:31:00;16.69;80.49
26721;HTU21D;15950;51.112;6.966;2023-07-30T07:34:00;16.78;80.56
26721;HTU21D;15950;51.112;6.966;2023-07-30T07:37:01;16.94;80.11
26721;HTU21D;15950;51.112;6.966;2023-07-30T07:40:01;16.80;80.30
26721;HTU21D;15950;51.112;6.966;2023-07-30T07:43:00;16.93;80.40
26721;HTU21D;15950;51.112;6.966;2023-07-30T07:46:00;16.89;80.07
26721;HTU21D;15950;51.112;6.966;2023-07-30T07:49:00;17.01;79.95
26721;HTU21D;15950;51.112;6.966;2023-07-30T07:52:00;16.89;79.49
26721;HTU21D;15950;51.112;6.966;2023-07-30T07:55:01;16.85;79.56
26721;HTU21D;15950;51.112;6.966;2023-07-30T07:58:00;16.98;79.66
26721;HTU21D;15950;51.112;6.966;2023-07-30T08:01:00;17.01;79.73
26721;HTU21D;15950;51.112;6.966;2023-07-30T08:04:02;17.10;79.59
26721;HTU21D;15950;51.112;6.966;2023-07-30T08:07:00;17.13;78.95
26721;HTU21D;15950;51.112;6.966;2023-07-30T08:10:00;17.05;78.75
26721;HTU21D;15950;51.112;6.966;2023-07-30T08:13:00;17.15;78.79
26721;HTU21D;15950;51.112;6.966;2023-07-30T08:16:01;17.30;78.98
26721;HTU21D;15950;51.112;6.966;2023-07-30T08:19:00;17.40;78.99
26721;HTU21D;15950;51.112;6.966;2023-07-30T08:22:00;17.40;78.55
26721;HTU21D;15950;51.112;6.966;2023-07-30T08:25:01;17.45;78.37
26721;HTU21D;15950;51.112;6.966;2023-07-30T08:28:00;17.44;78.82
26721;HTU21D;15950;51.112;6.966;2023-07-30T08:31:01;17.34;79.32
26721;HTU21D;15950;51.112;6.966;2023-07-30T08:34:00;17.37;79.34
26721;HTU21D;15950;51.112;6.966;2023-07-30T08:37:00;17.37;78.95
26721;HTU21D;15950;51.112;6.966;2023-07-30T08:40:00;17.37;78.37
26721;HTU21D;15950;51.112;6.966;2023-07-30T08:43:02;17.45;78.91
26721;HTU21D;15950;51.112;6.966;2023-07-30T08:46:01;17.50;78.70
26721;HTU21D;15950;51.112;6.966;2023-07-30T08:49:00;17.61;78.63
26721;HTU21D;15950;51.112;6.966;2023-07-30T08:52:02;17.64;79.03
26721;HTU21D;15950;51.112;6.966;2023-07-30T08:55:02;17.73;78.61
26721;HTU21D;15950;51.112;6.966;2023-07-30T08:58:04;17.94;78.51
26721;HTU21D;15950;51.112;6.966;2023-07-30T09:01:01;17.99;78.08
26721;HTU21D;15950;51.112;6.966;2023-07-30T09:04:00;17.99;77.35
26721;HTU21D;15950;51.112;6.966;2023-07-30T09:07:00;18.07;76.78
26721;HTU21D;15950;51.112;6.966;2023-07-30T09:10:00;18.08;76.37
26721;HTU21D;15950;51.112;6.966;2023-07-30T09:13:02;18.13;75.87
26721;HTU21D;15950;51.112;6.966;2023-07-30T09:16:09;18.26;75.34
26721;HTU21D;15950;51.112;6.966;2023-07-30T09:19:00;18.19;75.28
26721;HTU21D;15950;51.112;6.966;2023-07-30T09:22:05;18.24;74.89
26721;HTU21D;15950;51.112;6.966;2023-07-30T09:25:02;18.18;74.62
26721;HTU21D;15950;51.112;6.966;2023-07-30T09:28:00;18.20;73.95
26721;HTU21D;15950;51.112;6.966;2023-07-30T09:31:05;18.24;73.64
26721;HTU21D;15950;51.112;6.966;2023-07-30T09:34:00;18.37;73.61
26721;HTU21D;15950;51.112;6.966;2023-07-30T09:37:01;18.59;73.33
26721;HTU21D;15950;51.112;6.966;2023-07-30T09:40:00;18.77;71.39
26721;HTU21D;15950;51.112;6.966;2023-07-30T09:43:02;18.92;71.25
26721;HTU21D;15950;51.112;6.966;2023-07-30T09:46:06;18.99;70.48
26721;HTU21D;15950;51.112;6.966;2023-07-30T09:49:01;19.02;70.65
26721;HTU21D;15950;51.112;6.966;2023-07-30T09:52:02;18.99;70.71
26721;HTU21D;15950;51.112;6.966;2023-07-30T09:55:00;19.22;69.75
26721;HTU21D;15950;51.112;6.966;2023-07-30T09:58:00;19.30;68.23
26721;HTU21D;15950;51.112;6.966;2023-07-30T10:01:01;19.28;67.91
26721;HTU21D;15950;51.112;6.966;2023-07-30T10:04:07;19.38;67.23
26721;HTU21D;15950;51.112;6.966;2023-07-30T10:07:08;19.66;66.94
26721;HTU21D;15950;51.112;6.966;2023-07-30T10:10:01;19.69;66.96
26721;HTU21D;15950;51.112;6.966;2023-07-30T10:13:04;19.78;66.78
26721;HTU21D;15950;51.112;6.966;2023-07-30T10:16:00;19.68;66.36
26721;HTU21D;15950;51.112;6.966;2023-07-30T10:19:01;19.60;66.53
26721;HTU21D;15950;51.112;6.966;2023-07-30T10:25:03;19.59;66.38
26721;HTU21D;15950;51.112;6.966;2023-07-30T10:28:00;19.47;66.31
26721;HTU21D;15950;51.112;6.966;2023-07-30T10:31:04;19.68;67.14
26721;HTU21D;15950;51.112;6.966;2023-07-30T10:34:09;19.87;65.31
26721;HTU21D;15950;51.112;6.966;2023-07-30T10:37:00;19.94;64.85
26721;HTU21D;15950;51.112;6.966;2023-07-30T10:40:00;19.67;63.92
26721;HTU21D;15950;51.112;6.966;2023-07-30T10:43:00;19.70;63.75
26721;HTU21D;15950;51.112;6.966;2023-07-30T10:46:00;19.63;64.46
26721;HTU21D;15950;51.112;6.966;2023-07-30T10:49:03;19.42;63.27
26721;HTU21D;15950;51.112;6.966;2023-07-30T10:52:00;19.46;64.24
26721;HTU21D;15950;51.112;6.966;2023-07-30T10:55:01;19.31;65.88
26721;HTU21D;15950;51.112;6.966;2023-07-30T10:58:01;19.46;66.63
26721;HTU21D;15950;51.112;6.966;2023-07-30T11:01:05;19.65;66.09
26721;HTU21D;15950;51.112;6.966;2023-07-30T11:04:00;19.91;65.36
26721;HTU21D;15950;51.112;6.966;2023-07-30T11:07:00;19.95;64.89
26721;HTU21D;15950;51.112;6.966;2023-07-30T11:10:01;19.91;64.82
26721;HTU21D;15950;51.112;6.966;2023-07-30T11:13:00;20.10;64.47
26721;HTU21D;15950;51.112;6.966;2023-07-30T11:16:00;20.25;63.05
26721;HTU21D;15950;51.112;6.966;2023-07-30T11:19:00;20.16;59.56
26721;HTU21D;15950;51.112;6.966;2023-07-30T11:22:00;20.01;60.13
26721;HTU21D;15950;51.112;6.966;2023-07-30T11:25:00;19.99;60.51
26721;HTU21D;15950;51.112;6.966;2023-07-30T11:28:00;19.95;60.89
26721;HTU21D;15950;51.112;6.966;2023-07-30T11:31:08;20.09;60.97
26721;HTU21D;15950;51.112;6.966;2023-07-30T11:34:00;20.04;61.09
26721;HTU21D;15950;51.112;6.966;2023-07-30T11:37:00;19.93;60.71
26721;HTU21D;15950;51.112;6.966;2023-07-30T11:40:00;19.97;61.28
26721;HTU21D;15950;51.112;6.966;2023-07-30T11:43:00;20.11;61.31
26721;HTU21D;15950;51.112;6.966;2023-07-30T11:52:09;20.03;61.39
26721;HTU21D;15950;51.112;6.966;2023-07-30T11:55:03;19.87;62.08
26721;HTU21D;15950;51.112;6.966;2023-07-30T11:58:00;19.98;62.00
26721;HTU21D;15950;51.112;6.966;2023-07-30T12:01:00;20.01;62.29
26721;HTU21D;15950;51.112;6.966;2023-07-30T12:04:05;20.17;62.41
26721;HTU21D;15950;51.112;6.966;2023-07-30T12:07:03;20.22;62.04
26721;HTU21D;15950;51.112;6.966;2023-07-30T12:10:06;20.21;61.79
26721;HTU21D;15950;51.112;6.966;2023-07-30T12:13:00;20.07;60.93
26721;HTU21D;15950;51.112;6.966;2023-07-30T12:16:00;20.24;61.06
26721;HTU21D;15950;51.112;6.966;2023-07-30T12:19:00;20.12;61.14
26721;HTU21D;15950;51.112;6.966;2023-07-30T12:22:00;19.96;62.42
26721;HTU21D;15950;51.112;6.966;2023-07-30T12:25:02;19.72;62.87
26721;HTU21D;15950;51.112;6.966;2023-07-30T12:28:01;19.46;63.45
26721;HTU21D;15950;51.112;6.966;2023-07-30T12:31:01;19.41;64.26
26721;HTU21D;15950;51.112;6.966;2023-07-30T12:34:00;19.36;65.47
26721;HTU21D;15950;51.112;6.966;2023-07-30T12:37:00;19.41;65.01
26721;HTU21D;15950;51.112;6.966;2023-07-30T12:40:00;19.52;65.46
26721;HTU21D;15950;51.112;6.966;2023-07-30T12:43:03;19.56;64.45
26721;HTU21D;15950;51.112;6.966;2023-07-30T12:46:00;19.78;63.81
26721;HTU21D;15950;51.112;6.966;2023-07-30T12:49:00;19.98;63.13
26721;HTU21D;15950;51.112;6.966;2023-07-30T12:52:00;20.01;61.76
26721;HTU21D;15950;51.112;6.966;2023-07-30T12:55:01;20.14;61.34
26721;HTU21D;15950;51.112;6.966;2023-07-30T12:58:00;19.94;61.41
26721;HTU21D;15950;51.112;6.966;2023-07-30T13:01:02;20.00;61.86
26721;HTU21D;15950;51.112;6.966;2023-07-30T13:04:00;20.22;62.00
26721;HTU21D;15950;51.112;6.966;2023-07-30T13:07:00;20.24;62.28
26721;HTU21D;15950;51.112;6.966;2023-07-30T13:10:07;20.24;62.57
26721;HTU21D;15950;51.112;6.966;2023-07-30T13:13:00;20.57;62.69
26721;HTU21D;15950;51.112;6.966;2023-07-30T13:16:00;20.55;62.07
26721;HTU21D;15950;51.112;6.966;2023-07-30T13:19:00;20.62;62.08
26721;HTU21D;15950;51.112;6.966;2023-07-30T13:22:00;20.65;62.19
26721;HTU21D;15950;51.112;6.966;2023-07-30T13:25:00;20.62;61.60
26721;HTU21D;15950;51.112;6.966;2023-07-30T13:28:00;20.71;61.27
26721;HTU21D;15950;51.112;6.966;2023-07-30T13:31:00;20.79;60.89
26721;HTU21D;15950;51.112;6.966;2023-07-30T13:34:00;20.86;60.58
26721;HTU21D;15950;51.112;6.966;2023-07-30T13:37:00;20.78;60.81
26721;HTU21D;15950;51.112;6.966;2023-07-30T13:40:00;20.78;59.67
26721;HTU21D;15950;51.112;6.966;2023-07-30T13:43:00;20.72;59.59
26721;HTU21D;15950;51.112;6.966;2023-07-30T13:46:00;20.69;58.99
26721;HTU21D;15950;51.112;6.966;2023-07-30T13:49:00;20.87;59.90
26721;HTU21D;15950;51.112;6.966;2023-07-30T13:52:00;20.89;59.82
26721;HTU21D;15950;51.112;6.966;2023-07-30T13:55:00;21.03;59.22
26721;HTU21D;15950;51.112;6.966;2023-07-30T13:58:00;21.01;59.04
26721;HTU21D;15950;51.112;6.966;2023-07-30T14:01:00;20.89;58.51
26721;HTU21D;15950;51.112;6.966;2023-07-30T14:04:00;20.69;59.39
26721;HTU21D;15950;51.112;6.966;2023-07-30T14:07:00;20.73;60.22
26721;HTU21D;15950;51.112;6.966;2023-07-30T14:10:00;21.01;60.96
26721;HTU21D;15950;51.112;6.966;2023-07-30T14:13:00;21.01;59.00
26721;HTU21D;15950;51.112;6.966;2023-07-30T14:16:00;21.17;59.00
26721;HTU21D;15950;51.112;6.966;2023-07-30T14:19:00;21.03;58.30
26721;HTU21D;15950;51.112;6.966;2023-07-30T14:22:00;20.97;58.90
26721;HTU21D;15950;51.112;6.966;2023-07-30T14:25:01;20.84;58.64
26721;HTU21D;15950;51.112;6.966;2023-07-30T14:28:00;20.95;59.07
26721;HTU21D;15950;51.112;6.966;2023-07-30T14:31:00;21.18;59.88
26721;HTU21D;15950;51.112;6.966;2023-07-30T14:34:00;21.33;60.52
26721;HTU21D;15950;51.112;6.966;2023-07-30T14:37:00;21.06;56.91
26721;HTU21D;15950;51.112;6.966;2023-07-30T14:40:00;21.21;56.15
26721;HTU21D;15950;51.112;6.966;2023-07-30T14:43:00;21.24;56.07
26721;HTU21D;15950;51.112;6.966;2023-07-30T14:46:00;21.34;56.38
26721;HTU21D;15950;51.112;6.966;2023-07-30T14:49:00;21.49;56.74
26721;HTU21D;15950;51.112;6.966;2023-07-30T14:52:00;21.44;56.55
26721;HTU21D;15950;51.112;6.966;2023-07-30T14:55:00;21.69;56.71
26721;HTU21D;15950;51.112;6.966;2023-07-30T14:58:00;21.72;56.23
26721;HTU21D;15950;51.112;6.966;2023-07-30T15:01:00;21.82;55.42
26721;HTU21D;15950;51.112;6.966;2023-07-30T15:04:00;21.93;55.29
26721;HTU21D;15950;51.112;6.966;2023-07-30T15:07:00;21.79;54.42
26721;HTU21D;15950;51.112;6.966;2023-07-30T15:10:00;21.70;54.36
26721;HTU21D;15950;51.112;6.966;2023-07-30T15:13:00;21.63;55.34
26721;HTU21D;15950;51.112;6.966;2023-07-30T15:16:00;21.54;55.45
26721;HTU21D;15950;51.112;6.966;2023-07-30T15:19:01;21.48;56.07
26721;HTU21D;15950;51.112;6.966;2023-07-30T15:22:00;21.47;55.90
26721;HTU21D;15950;51.112;6.966;2023-07-30T15:25:00;21.41;54.30
26721;HTU21D;15950;51.112;6.966;2023-07-30T15:28:00;21.58;54.08
26721;HTU21D;15950;51.112;6.966;2023-07-30T15:31:00;21.49;52.33
26721;HTU21D;15950;51.112;6.966;2023-07-30T15:34:00;21.46;52.97
26721;HTU21D;15950;51.112;6.966;2023-07-30T15:37:00;21.53;52.97
26721;HTU21D;15950;51.112;6.966;2023-07-30T15:40:00;21.53;53.09
26721;HTU21D;15950;51.112;6.966;2023-07-30T15:43:01;21.54;53.10
26721;HTU21D;15950;51.112;6.966;2023-07-30T15:46:00;21.57;53.68
26721;HTU21D;15950;51.112;6.966;2023-07-30T15:49:00;21.64;53.91
26721;HTU21D;15950;51.112;6.966;2023-07-30T15:52:00;21.70;53.59
26721;HTU21D;15950;51.112;6.966;2023-07-30T15:55:00;21.67;53.99
26721;HTU21D;15950;51.112;6.966;2023-07-30T15:58:00;21.79;53.79
26721;HTU21D;15950;51.112;6.966;2023-07-30T16:01:07;21.55;53.94
26721;HTU21D;15950;51.112;6.966;2023-07-30T16:04:00;21.62;53.45
26721;HTU21D;15950;51.112;6.966;2023-07-30T16:07:00;21.57;52.16
26721;HTU21D;15950;51.112;6.966;2023-07-30T16:10:00;21.67;52.02
26721;HTU21D;15950;51.112;6.966;2023-07-30T16:13:00;21.74;52.42
26721;HTU21D;15950;51.112;6.966;2023-07-30T16:16:09;21.67;53.14
26721;HTU21D;15950;51.112;6.966;2023-07-30T16:19:00;21.58;52.94
26721;HTU21D;15950;51.112;6.966;2023-07-30T16:22:00;21.58;53.70
26721;HTU21D;15950;51.112;6.966;2023-07-30T16:25:00;21.60;53.97
26721;HTU21D;15950;51.112;6.966;2023-07-30T16:28:00;21.67;54.40
26721;HTU21D;15950;51.112;6.966;2023-07-30T16:31:00;21.51;54.49
26721;HTU21D;15950;51.112;6.966;2023-07-30T16:34:01;21.54;54.96
26721;HTU21D;15950;51.112;6.966;2023-07-30T16:37:00;21.61;55.36
26721;HTU21D;15950;51.112;6.966;2023-07-30T16:40:00;21.52;54.28
26721;HTU21D;15950;51.112;6.966;2023-07-30T16:43:00;21.44;53.07
26721;HTU21D;15950;51.112;6.966;2023-07-30T16:46:01;21.40;53.23
26721;HTU21D;15950;51.112;6.966;2023-07-30T16:49:00;21.44;53.23
26721;HTU21D;15950;51.112;6.966;2023-07-30T16:52:00;21.43;52.82
26721;HTU21D;15950;51.112;6.966;2023-07-30T16:55:00;21.41;52.27
26721;HTU21D;15950;51.112;6.966;2023-07-30T16:58:00;21.37;52.46
26721;HTU21D;15950;51.112;6.966;2023-07-30T17:01:00;21.35;52.52
26721;HTU21D;15950;51.112;6.966;2023-07-30T17:04:00;21.39;53.27
26721;HTU21D;15950;51.112;6.966;2023-07-30T17:07:00;21.54;53.38
26721;HTU21D;15950;51.112;6.966;2023-07-30T17:10:00;21.68;52.53
26721;HTU21D;15950;51.112;6.966;2023-07-30T17:13:00;21.65;52.28
26721;HTU21D;15950;51.112;6.966;2023-07-30T17:16:05;21.63;51.87
26721;HTU21D;15950;51.112;6.966;2023-07-30T17:19:00;21.80;51.74
26721;HTU21D;15950;51.112;6.966;2023-07-30T17:22:00;21.78;52.04
26721;HTU21D;15950;51.112;6.966;2023-07-30T17:25:01;21.57;51.72
26721;HTU21D;15950;51.112;6.966;2023-07-30T17:28:00;21.55;51.04
26721;HTU21D;15950;51.112;6.966;2023-07-30T17:31:00;21.38;50.97
26721;HTU21D;15950;51.112;6.966;2023-07-30T17:34:00;21.21;51.04
26721;HTU21D;15950;51.112;6.966;2023-07-30T17:37:00;21.30;50.98
26721;HTU21D;15950;51.112;6.966;2023-07-30T17:40:00;21.22;50.83
26721;HTU21D;15950;51.112;6.966;2023-07-30T17:43:00;21.20;51.09
26721;HTU21D;15950;51.112;6.966;2023-07-30T17:46:03;21.17;51.17
26721;HTU21D;15950;51.112;6.966;2023-07-30T17:49:00;21.15;51.08
26721;HTU21D;15950;51.112;6.966;2023-07-30T17:52:00;21.06;51.55
26721;HTU21D;15950;51.112;6.966;2023-07-30T17:55:00;21.05;52.04
26721;HTU21D;15950;51.112;6.966;2023-07-30T17:58:00;20.92;53.04
26721;HTU21D;15950;51.112;6.966;2023-07-30T18:01:06;20.75;55.33
26721;HTU21D;15950;51.112;6.966;2023-07-30T18:04:00;20.36;58.00
26721;HTU21D;15950;51.112;6.966;2023-07-30T18:07:00;20.04;61.51
26721;HTU21D;15950;51.112;6.966;2023-07-30T18:10:00;19.86;64.01
26721;HTU21D;15950;51.112;6.966;2023-07-30T18:13:00;19.79;65.86
26721;HTU21D;15950;51.112;6.966;2023-07-30T18:16:00;19.46;68.75
26721;HTU21D;15950;51.112;6.966;2023-07-30T18:19:00;19.21;70.70
26721;HTU21D;15950;51.112;6.966;2023-07-30T18:22:00;18.99;72.74
26721;HTU21D;15950;51.112;6.966;2023-07-30T18:25:00;18.95;74.35
26721;HTU21D;15950;51.112;6.966;2023-07-30T18:28:00;18.82;76.05
26721;HTU21D;15950;51.112;6.966;2023-07-30T18:31:00;18.89;76.95
26721;HTU21D;15950;51.112;6.966;2023-07-30T18:34:00;19.05;76.86
26721;HTU21D;15950;51.112;6.966;2023-07-30T18:37:00;19.08;77.06
26721;HTU21D;15950;51.112;6.966;2023-07-30T18:40:00;18.99;77.33
26721;HTU21D;15950;51.112;6.966;2023-07-30T18:43:00;18.89;78.13
26721;HTU21D;15950;51.112;6.966;2023-07-30T18:46:00;19.03;77.38